Eurasian Highway — 7JKY — position and weather

sailwx.info

Track history (hours):
 
Tides and Currents Weather Stations Pressure Air Temp Water Temp Dewpoint Dewpoint Depression Visibility Wind Speed Wind Dir Waves Ship Positions

Eurasian Highway

Last reported at 2017-Jan-08 09:20 UTC. Time now 2017-Jan-18 18:21 UTC.
Position N 48°02' W 006°17'.
Warning: this ship's position is 10 days out of date.

Length 199 m; draft 8 m.

Type: Cargo ship. MMSI: 432839000.

Date/timePositionNaut miles runAvg speedWind from/ knotsBaromVisibWave heightAir tempDewpointWater temp
2017-Jan-08 09:20N 48°02' W 006°17'1416.3
2017-Jan-08 08:28N 48°15' W 006°11'1616.6
2017-Jan-08 07:30N 48°31' W 006°03'1717.1
2017-Jan-08 06:32N 48°46' W 005°53'1717.3
2017-Jan-08 05:33N 48°58' W 005°35'1917.5
2017-Jan-08 04:26N 49°08' W 005°09'1717.1
2017-Jan-08 03:27N 49°16' W 004°47'5316.1
2017-Jan-08 00:10N 49°43' W 003°37'1016.2
2017-Jan-07 23:34N 49°48' W 003°24'1716.8
2017-Jan-07 22:33N 49°56' W 003°01'1817.8
2017-Jan-07 21:32N 50°03' W 002°35'1919.0
2017-Jan-07 20:33N 50°11' W 002°09'1919.0
2017-Jan-07 19:33N 50°20' W 001°42'1818.2
2017-Jan-07 18:33N 50°28' W 001°17'1615.9
2017-Jan-07 17:34N 50°39' W 000°58'1110.7
2017-Jan-07 16:34N 50°46' W 001°12'8 8.2
2017-Jan-07 15:33N 50°51' W 001°21'3 2.6
2017-Jan-07 14:31N 50°53' W 001°24'0 0.0
2017-Jan-07 13:31N 50°53' W 001°24'0 0.0
2017-Jan-07 12:31N 50°53' W 001°24'0 0.0
2017-Jan-07 11:31N 50°53' W 001°24'0 0.0
2017-Jan-07 10:28N 50°53' W 001°24'0 0.0
2017-Jan-07 09:28N 50°53' W 001°24'0 0.0
2017-Jan-07 08:31N 50°53' W 001°24'0 0.0
2017-Jan-07 07:31N 50°53' W 001°24'0 0.0
2017-Jan-07 06:31N 50°53' W 001°24'0 0.0
2017-Jan-07 05:28N 50°53' W 001°24'0 0.0
2017-Jan-07 04:31N 50°53' W 001°24'0 0.0
2017-Jan-07 03:31N 50°53' W 001°24'0 0.0
2017-Jan-07 02:31N 50°53' W 001°24'0 0.0
2017-Jan-07 01:31N 50°53' W 001°24'0 0.0
2017-Jan-07 00:31N 50°53' W 001°24'0 0.0
2017-Jan-06 23:31N 50°53' W 001°24'0 0.0
2017-Jan-06 22:28N 50°53' W 001°24'0 0.0
2017-Jan-06 21:31N 50°53' W 001°24'6 5.9
2017-Jan-06 20:33N 50°49' W 001°18'1111.2
2017-Jan-06 19:33N 50°44' W 001°02'1111.4
2017-Jan-06 18:33N 50°37' W 000°48'1616.0
2017-Jan-06 17:34N 50°35' W 000°23'1615.6
2017-Jan-06 16:33N 50°33' E 000°02'1514.9
2017-Jan-06 15:34N 50°37' E 000°24'3114.6
2017-Jan-06 13:25N 50°54' E 001°06'1416.6
2017-Jan-06 12:34N 51°03' E 001°23'1716.9
2017-Jan-06 11:34N 51°13' E 001°44'1616.2
2017-Jan-06 10:34N 51°28' E 001°55'1515.3
2017-Jan-06 09:34N 51°39' E 002°13'1615.0
2017-Jan-06 08:28N 51°51' E 002°30'9615.6
2017-Jan-06 02:20N 53°04' E 004°13'14414.7
2017-Jan-05 16:32N 53°51' E 008°01'1515.7
2017-Jan-05 15:33N 53°41' E 008°21'1010.4
2017-Jan-05 14:34N 53°34' E 008°33'1 0.8
2017-Jan-05 13:31N 53°35' E 008°33'0 0.0
2017-Jan-05 12:31N 53°35' E 008°33'0 0.0
2017-Jan-05 11:31N 53°35' E 008°33'0 0.0
2017-Jan-05 10:31N 53°35' E 008°33'0 0.0
2017-Jan-05 09:31N 53°35' E 008°33'0 0.0
2017-Jan-05 08:31N 53°35' E 008°33'0 0.0
2017-Jan-05 07:31N 53°35' E 008°33'0 0.0
2017-Jan-05 06:31N 53°35' E 008°33'0 0.0
2017-Jan-05 05:31N 53°35' E 008°33'0 0.0
2017-Jan-05 04:31N 53°35' E 008°33'0 0.0
2017-Jan-05 03:31N 53°35' E 008°33'0 0.0
2017-Jan-05 02:31N 53°35' E 008°33'0 0.0
2017-Jan-05 01:31N 53°35' E 008°33'0 0.0
2017-Jan-05 00:31N 53°35' E 008°33'0 0.0
2017-Jan-04 23:31N 53°35' E 008°33'0 0.0
2017-Jan-04 22:31N 53°35' E 008°33'0 0.0
2017-Jan-04 21:31N 53°35' E 008°33'0 0.0
2017-Jan-04 20:25N 53°35' E 008°33'0 0.0
2017-Jan-04 19:31N 53°35' E 008°33'0 0.0
2017-Jan-04 18:31N 53°35' E 008°33'0 0.0
2017-Jan-04 17:31N 53°35' E 008°33'0 0.0
2017-Jan-04 16:31N 53°35' E 008°33'0 0.0
2017-Jan-04 15:31N 53°35' E 008°33'0 0.4
2017-Jan-04 14:33N 53°34' E 008°33'3 2.7
2017-Jan-04 13:34N 53°36' E 008°30'1515.2
2017-Jan-04 12:33N 53°46' E 008°10'17 2.4
2017-Jan-04 05:33N 53°60' E 007°54'2 2.0
2017-Jan-04 04:33N 53°59' E 007°50'1 0.9
2017-Jan-04 03:33N 53°59' E 007°52'1 1.0
2017-Jan-04 02:33N 53°60' E 007°54'1 0.6
2017-Jan-04 01:33N 53°60' E 007°55'0 0.2
2017-Jan-04 00:34N 53°60' E 007°55'1 0.9
2017-Jan-03 23:34N 53°59' E 007°56'2 1.6
2017-Jan-03 22:33N 53°60' E 007°54'1 1.2
2017-Jan-03 21:33N 53°59' E 007°55'1 0.6
2017-Jan-03 20:33N 53°59' E 007°56'1 1.0
2017-Jan-03 19:33N 53°59' E 007°55'1 0.5
2017-Jan-03 18:33N 53°60' E 007°54'1 1.1
2017-Jan-03 17:33N 53°60' E 007°52'1 0.7
2017-Jan-03 16:33N 53°59' E 007°53'2 1.9
2017-Jan-03 15:34N 54°00' E 007°56'1 0.7
2017-Jan-03 14:33N 53°60' E 007°56'2 2.4
2017-Jan-03 13:33N 53°60' E 007°52'3 2.7
2017-Jan-03 12:34N 53°59' E 007°47'7 7.3
2017-Jan-03 11:33N 53°56' E 007°36'8916.3
2017-Jan-03 06:05N 53°32' E 005°11'815.4
2017-Jan-03 05:33N 53°29' E 004°58'1814.2
2017-Jan-03 04:16N 53°16' E 004°36'1114.8
2017-Jan-03 03:33N 53°07' E 004°28'1514.8
2017-Jan-03 02:33N 52°53' E 004°17'1514.6
2017-Jan-03 01:33N 52°41' E 004°04'1514.5
2017-Jan-03 00:33N 52°31' E 003°47'1514.5
2017-Jan-02 23:32N 52°21' E 003°29'5513.8
2017-Jan-02 19:34N 51°34' E 002°43'1211.8
2017-Jan-02 18:33N 51°22' E 002°47'1211.8
2017-Jan-02 17:33N 51°24' E 003°05'7 6.6
2017-Jan-02 16:33N 51°20' E 003°13'2 2.1
2017-Jan-02 15:32N 51°18' E 003°14'0 0.0
2017-Jan-02 14:32N 51°18' E 003°14'0 0.0
2017-Jan-02 13:32N 51°18' E 003°14'0 0.0
2017-Jan-02 12:32N 51°18' E 003°14'0 0.0
2017-Jan-02 11:32N 51°18' E 003°14'0 0.0
2017-Jan-02 10:32N 51°18' E 003°14'0 0.0
2017-Jan-02 09:32N 51°18' E 003°14'0 0.0
2017-Jan-02 08:32N 51°18' E 003°14'0 0.0
2017-Jan-02 07:32N 51°18' E 003°14'0 0.0
2017-Jan-02 06:32N 51°18' E 003°14'0 0.0
2017-Jan-02 05:32N 51°18' E 003°14'0 0.0
2017-Jan-02 04:32N 51°18' E 003°14'0 0.3
2017-Jan-02 03:34N 51°18' E 003°14'2 1.8
2017-Jan-02 02:34N 51°20' E 003°13'9 8.6
2017-Jan-02 01:33N 51°24' E 003°01'1413.7
2017-Jan-02 00:33N 51°22' E 002°39'1312.7
2017-Jan-01 23:33N 51°18' E 002°20'1515.0
2017-Jan-01 22:33N 51°11' E 001°59'1413.8
2017-Jan-01 21:33N 51°02' E 001°41'1413.8
2017-Jan-01 20:33N 50°51' E 001°28'4614.1
2017-Jan-01 17:19N 50°24' E 000°30'1214.9
2017-Jan-01 16:30N 50°21' E 000°12'1414.9
2017-Jan-01 15:33N 50°17' W 000°10'1814.7
2017-Jan-01 14:21N 50°12' W 000°36'1415.2
2017-Jan-01 13:26N 50°07' W 000°56'7018.1
2017-Jan-01 09:33N 49°51' W 002°42'1818.3
2017-Jan-01 08:33N 49°43' W 003°08'6018.2
2017-Jan-01 05:15N 49°11' W 004°26'1318.1
2017-Jan-01 04:32N 49°05' W 004°43'1717.9
2017-Jan-01 03:33N 48°57' W 005°07'1817.5
2017-Jan-01 02:33N 48°48' W 005°30'3416.6
2017-Jan-01 00:32N 48°26' W 006°08'  
2016-Dec-29 13:33N 38°23' W 023°36'1616.3
2016-Dec-29 12:33N 38°13' W 023°53'1716.6
2016-Dec-29 11:33N 38°03' W 024°10'1716.8
2016-Dec-29 10:33N 37°53' W 024°27'1716.7
2016-Dec-29 09:33N 37°43' W 024°44'  
Track history (hours):
 
Tides and Currents Weather Stations Pressure Air Temp Water Temp Dewpoint Dewpoint Depression Visibility Wind Speed Wind Dir Waves Ship Positions

Eurasian Highway

Last reported at 2017-Jan-08 09:20 UTC. Time now 2017-Jan-18 18:21 UTC.
Position N 48°02' W 006°17'.
Warning: this ship's position is 10 days out of date.

Length 199 m; draft 8 m.

Type: Cargo ship. MMSI: 432839000.

Date/timePositionNaut miles runAvg speedWind from/ knotsBaromVisibWave heightAir tempDewpointWater temp
2017-Jan-08 09:20N 48°02' W 006°17'1416.3
2017-Jan-08 08:28N 48°15' W 006°11'1616.6
2017-Jan-08 07:30N 48°31' W 006°03'1717.1
2017-Jan-08 06:32N 48°46' W 005°53'1717.3
2017-Jan-08 05:33N 48°58' W 005°35'1917.5
2017-Jan-08 04:26N 49°08' W 005°09'1717.1
2017-Jan-08 03:27N 49°16' W 004°47'5316.1
2017-Jan-08 00:10N 49°43' W 003°37'1016.2
2017-Jan-07 23:34N 49°48' W 003°24'1716.8
2017-Jan-07 22:33N 49°56' W 003°01'1817.8
2017-Jan-07 21:32N 50°03' W 002°35'1919.0
2017-Jan-07 20:33N 50°11' W 002°09'1919.0
2017-Jan-07 19:33N 50°20' W 001°42'1818.2
2017-Jan-07 18:33N 50°28' W 001°17'1615.9
2017-Jan-07 17:34N 50°39' W 000°58'1110.7
2017-Jan-07 16:34N 50°46' W 001°12'8 8.2
2017-Jan-07 15:33N 50°51' W 001°21'3 2.6
2017-Jan-07 14:31N 50°53' W 001°24'0 0.0
2017-Jan-07 13:31N 50°53' W 001°24'0 0.0
2017-Jan-07 12:31N 50°53' W 001°24'0 0.0
2017-Jan-07 11:31N 50°53' W 001°24'0 0.0
2017-Jan-07 10:28N 50°53' W 001°24'0 0.0
2017-Jan-07 09:28N 50°53' W 001°24'0 0.0
2017-Jan-07 08:31N 50°53' W 001°24'0 0.0
2017-Jan-07 07:31N 50°53' W 001°24'0 0.0
2017-Jan-07 06:31N 50°53' W 001°24'0 0.0
2017-Jan-07 05:28N 50°53' W 001°24'0 0.0
2017-Jan-07 04:31N 50°53' W 001°24'0 0.0
2017-Jan-07 03:31N 50°53' W 001°24'0 0.0
2017-Jan-07 02:31N 50°53' W 001°24'0 0.0
2017-Jan-07 01:31N 50°53' W 001°24'0 0.0
2017-Jan-07 00:31N 50°53' W 001°24'0 0.0
2017-Jan-06 23:31N 50°53' W 001°24'0 0.0
2017-Jan-06 22:28N 50°53' W 001°24'0 0.0
2017-Jan-06 21:31N 50°53' W 001°24'6 5.9
2017-Jan-06 20:33N 50°49' W 001°18'1111.2
2017-Jan-06 19:33N 50°44' W 001°02'1111.4
2017-Jan-06 18:33N 50°37' W 000°48'1616.0
2017-Jan-06 17:34N 50°35' W 000°23'1615.6
2017-Jan-06 16:33N 50°33' E 000°02'1514.9
2017-Jan-06 15:34N 50°37' E 000°24'3114.6
2017-Jan-06 13:25N 50°54' E 001°06'1416.6
2017-Jan-06 12:34N 51°03' E 001°23'1716.9
2017-Jan-06 11:34N 51°13' E 001°44'1616.2
2017-Jan-06 10:34N 51°28' E 001°55'1515.3
2017-Jan-06 09:34N 51°39' E 002°13'1615.0
2017-Jan-06 08:28N 51°51' E 002°30'9615.6
2017-Jan-06 02:20N 53°04' E 004°13'14414.7
2017-Jan-05 16:32N 53°51' E 008°01'1515.7
2017-Jan-05 15:33N 53°41' E 008°21'1010.4
2017-Jan-05 14:34N 53°34' E 008°33'1 0.8
2017-Jan-05 13:31N 53°35' E 008°33'0 0.0
2017-Jan-05 12:31N 53°35' E 008°33'0 0.0
2017-Jan-05 11:31N 53°35' E 008°33'0 0.0
2017-Jan-05 10:31N 53°35' E 008°33'0 0.0
2017-Jan-05 09:31N 53°35' E 008°33'0 0.0
2017-Jan-05 08:31N 53°35' E 008°33'0 0.0
2017-Jan-05 07:31N 53°35' E 008°33'0 0.0
2017-Jan-05 06:31N 53°35' E 008°33'0 0.0
2017-Jan-05 05:31N 53°35' E 008°33'0 0.0
2017-Jan-05 04:31N 53°35' E 008°33'0 0.0
2017-Jan-05 03:31N 53°35' E 008°33'0 0.0
2017-Jan-05 02:31N 53°35' E 008°33'0 0.0
2017-Jan-05 01:31N 53°35' E 008°33'0 0.0
2017-Jan-05 00:31N 53°35' E 008°33'0 0.0
2017-Jan-04 23:31N 53°35' E 008°33'0 0.0
2017-Jan-04 22:31N 53°35' E 008°33'0 0.0
2017-Jan-04 21:31N 53°35' E 008°33'0 0.0
2017-Jan-04 20:25N 53°35' E 008°33'0 0.0
2017-Jan-04 19:31N 53°35' E 008°33'0 0.0
2017-Jan-04 18:31N 53°35' E 008°33'0 0.0
2017-Jan-04 17:31N 53°35' E 008°33'0 0.0
2017-Jan-04 16:31N 53°35' E 008°33'0 0.0
2017-Jan-04 15:31N 53°35' E 008°33'0 0.4
2017-Jan-04 14:33N 53°34' E 008°33'3 2.7
2017-Jan-04 13:34N 53°36' E 008°30'1515.2
2017-Jan-04 12:33N 53°46' E 008°10'17 2.4
2017-Jan-04 05:33N 53°60' E 007°54'2 2.0
2017-Jan-04 04:33N 53°59' E 007°50'1 0.9
2017-Jan-04 03:33N 53°59' E 007°52'1 1.0
2017-Jan-04 02:33N 53°60' E 007°54'1 0.6
2017-Jan-04 01:33N 53°60' E 007°55'0 0.2
2017-Jan-04 00:34N 53°60' E 007°55'1 0.9
2017-Jan-03 23:34N 53°59' E 007°56'2 1.6
2017-Jan-03 22:33N 53°60' E 007°54'1 1.2
2017-Jan-03 21:33N 53°59' E 007°55'1 0.6
2017-Jan-03 20:33N 53°59' E 007°56'1 1.0
2017-Jan-03 19:33N 53°59' E 007°55'1 0.5
2017-Jan-03 18:33N 53°60' E 007°54'1 1.1
2017-Jan-03 17:33N 53°60' E 007°52'1 0.7
2017-Jan-03 16:33N 53°59' E 007°53'2 1.9
2017-Jan-03 15:34N 54°00' E 007°56'1 0.7
2017-Jan-03 14:33N 53°60' E 007°56'2 2.4
2017-Jan-03 13:33N 53°60' E 007°52'3 2.7
2017-Jan-03 12:34N 53°59' E 007°47'7 7.3
2017-Jan-03 11:33N 53°56' E 007°36'8916.3
2017-Jan-03 06:05N 53°32' E 005°11'815.4
2017-Jan-03 05:33N 53°29' E 004°58'1814.2
2017-Jan-03 04:16N 53°16' E 004°36'1114.8
2017-Jan-03 03:33N 53°07' E 004°28'1514.8
2017-Jan-03 02:33N 52°53' E 004°17'1514.6
2017-Jan-03 01:33N 52°41' E 004°04'1514.5
2017-Jan-03 00:33N 52°31' E 003°47'1514.5
2017-Jan-02 23:32N 52°21' E 003°29'5513.8
2017-Jan-02 19:34N 51°34' E 002°43'1211.8
2017-Jan-02 18:33N 51°22' E 002°47'1211.8
2017-Jan-02 17:33N 51°24' E 003°05'7 6.6
2017-Jan-02 16:33N 51°20' E 003°13'2 2.1
2017-Jan-02 15:32N 51°18' E 003°14'0 0.0
2017-Jan-02 14:32N 51°18' E 003°14'0 0.0
2017-Jan-02 13:32N 51°18' E 003°14'0 0.0
2017-Jan-02 12:32N 51°18' E 003°14'0 0.0
2017-Jan-02 11:32N 51°18' E 003°14'0 0.0
2017-Jan-02 10:32N 51°18' E 003°14'0 0.0
2017-Jan-02 09:32N 51°18' E 003°14'0 0.0
2017-Jan-02 08:32N 51°18' E 003°14'0 0.0
2017-Jan-02 07:32N 51°18' E 003°14'0 0.0
2017-Jan-02 06:32N 51°18' E 003°14'0 0.0
2017-Jan-02 05:32N 51°18' E 003°14'0 0.0
2017-Jan-02 04:32N 51°18' E 003°14'0 0.3
2017-Jan-02 03:34N 51°18' E 003°14'2 1.8
2017-Jan-02 02:34N 51°20' E 003°13'9 8.6
2017-Jan-02 01:33N 51°24' E 003°01'1413.7
2017-Jan-02 00:33N 51°22' E 002°39'1312.7
2017-Jan-01 23:33N 51°18' E 002°20'1515.0
2017-Jan-01 22:33N 51°11' E 001°59'1413.8
2017-Jan-01 21:33N 51°02' E 001°41'1413.8
2017-Jan-01 20:33N 50°51' E 001°28'4614.1
2017-Jan-01 17:19N 50°24' E 000°30'1214.9
2017-Jan-01 16:30N 50°21' E 000°12'1414.9
2017-Jan-01 15:33N 50°17' W 000°10'1814.7
2017-Jan-01 14:21N 50°12' W 000°36'1415.2
2017-Jan-01 13:26N 50°07' W 000°56'7018.1
2017-Jan-01 09:33N 49°51' W 002°42'1818.3
2017-Jan-01 08:33N 49°43' W 003°08'6018.2
2017-Jan-01 05:15N 49°11' W 004°26'1318.1
2017-Jan-01 04:32N 49°05' W 004°43'1717.9
2017-Jan-01 03:33N 48°57' W 005°07'1817.5
2017-Jan-01 02:33N 48°48' W 005°30'3416.6
2017-Jan-01 00:32N 48°26' W 006°08'  
2016-Dec-29 13:33N 38°23' W 023°36'1616.3
2016-Dec-29 12:33N 38°13' W 023°53'1716.6
2016-Dec-29 11:33N 38°03' W 024°10'1716.8
2016-Dec-29 10:33N 37°53' W 024°27'1716.7
2016-Dec-29 09:33N 37°43' W 024°44'  

Dump ship's entire track history